Saint-Lazare, Canada
Current Conditions -  °F | °C
As of 5:00 AM on Wednesday 26 Nov 2014 (Local Time) from CYQB Reporting Station
Broken Clouds Broken Clouds  
Wind Chill: 24°   Ceiling: 3500
Heat Index: 32°   Visibility: 15mi
Dew Point: 23°   Wind: 10mph
Humidity: 69%   Direction: 240°WSW
Pressure: 30.13"   Gusts: NA
Location:  46.65°N, 70.8°W
Report Text: CYQB 261000Z 24009KT 15SM BKN035 00/M05 A3013 RMK SC6 SLP206
Loading
Personal Weather Stations






























Interactive Weather Map New forecast layout! Learn more

10-Day Weather Forecast

Advertisements
Track Severe Weather on mobile